sensor_id;sensor_type;location;lat;lon;timestamp;pressure;altitude;pressure_sealevel;temperature;humidity
77207;BME280;66190;50.708;7.906;2023-10-19T00:00:37;94522.66;;;10.27;100.00
77207;BME280;66190;50.708;7.906;2023-10-19T00:03:06;94524.84;;;10.30;100.00
77207;BME280;66190;50.708;7.906;2023-10-19T00:05:36;94517.53;;;10.25;100.00
77207;BME280;66190;50.708;7.906;2023-10-19T00:08:03;94523.97;;;10.24;100.00
77207;BME280;66190;50.708;7.906;2023-10-19T00:10:37;94531.72;;;10.21;100.00
77207;BME280;66190;50.708;7.906;2023-10-19T00:13:03;94518.59;;;10.24;100.00
77207;BME280;66190;50.708;7.906;2023-10-19T00:15:36;94516.47;;;10.26;100.00
77207;BME280;66190;50.708;7.906;2023-10-19T00:18:06;94519.75;;;10.28;100.00
77207;BME280;66190;50.708;7.906;2023-10-19T00:20:53;94518.34;;;10.26;100.00
77207;BME280;66190;50.708;7.906;2023-10-19T00:23:25;94517.44;;;10.20;100.00
77207;BME280;66190;50.708;7.906;2023-10-19T00:26:02;94517.34;;;10.32;100.00
77207;BME280;66190;50.708;7.906;2023-10-19T00:28:35;94511.09;;;10.26;100.00
77207;BME280;66190;50.708;7.906;2023-10-19T00:31:01;94517.78;;;10.24;100.00
77207;BME280;66190;50.708;7.906;2023-10-19T00:33:35;94509.00;;;10.28;100.00
77207;BME280;66190;50.708;7.906;2023-10-19T00:36:04;94502.84;;;10.33;100.00
77207;BME280;66190;50.708;7.906;2023-10-19T00:38:37;94496.03;;;10.25;100.00
77207;BME280;66190;50.708;7.906;2023-10-19T00:41:03;94494.78;;;10.33;100.00
77207;BME280;66190;50.708;7.906;2023-10-19T00:43:52;94518.97;;;10.33;100.00
77207;BME280;66190;50.708;7.906;2023-10-19T00:46:23;94509.59;;;10.36;100.00
77207;BME280;66190;50.708;7.906;2023-10-19T00:48:57;94509.59;;;10.36;100.00
77207;BME280;66190;50.708;7.906;2023-10-19T00:51:35;94511.81;;;10.39;100.00
77207;BME280;66190;50.708;7.906;2023-10-19T00:54:09;94516.09;;;10.40;100.00
77207;BME280;66190;50.708;7.906;2023-10-19T00:56:36;94521.22;;;10.41;100.00
77207;BME280;66190;50.708;7.906;2023-10-19T00:59:02;94521.22;;;10.41;100.00
77207;BME280;66190;50.708;7.906;2023-10-19T01:01:41;94517.13;;;10.34;100.00
77207;BME280;66190;50.708;7.906;2023-10-19T01:04:11;94505.34;;;10.40;100.00
77207;BME280;66190;50.708;7.906;2023-10-19T01:06:41;94505.94;;;10.42;100.00
77207;BME280;66190;50.708;7.906;2023-10-19T01:09:12;94497.28;;;10.40;100.00
77207;BME280;66190;50.708;7.906;2023-10-19T01:11:41;94493.88;;;10.44;100.00
77207;BME280;66190;50.708;7.906;2023-10-19T01:14:21;94494.97;;;10.48;100.00
77207;BME280;66190;50.708;7.906;2023-10-19T01:16:47;94484.22;;;10.48;100.00
77207;BME280;66190;50.708;7.906;2023-10-19T01:19:14;94480.44;;;10.44;100.00
77207;BME280;66190;50.708;7.906;2023-10-19T01:21:43;94477.22;;;10.47;100.00
77207;BME280;66190;50.708;7.906;2023-10-19T01:24:11;94474.03;;;10.50;100.00
77207;BME280;66190;50.708;7.906;2023-10-19T01:26:42;94477.97;;;10.43;100.00
77207;BME280;66190;50.708;7.906;2023-10-19T01:29:07;94464.31;;;10.44;100.00
77207;BME280;66190;50.708;7.906;2023-10-19T01:31:40;94465.59;;;10.42;100.00
77207;BME280;66190;50.708;7.906;2023-10-19T01:34:17;94472.91;;;10.46;100.00
77207;BME280;66190;50.708;7.906;2023-10-19T01:36:45;94475.91;;;10.50;100.00
77207;BME280;66190;50.708;7.906;2023-10-19T01:39:16;94481.66;;;10.58;100.00
77207;BME280;66190;50.708;7.906;2023-10-19T01:41:44;94481.34;;;10.55;100.00
77207;BME280;66190;50.708;7.906;2023-10-19T01:44:10;94482.78;;;10.62;100.00
77207;BME280;66190;50.708;7.906;2023-10-19T01:46:39;94480.59;;;10.59;100.00
77207;BME280;66190;50.708;7.906;2023-10-19T01:49:05;94485.47;;;10.62;100.00
77207;BME280;66190;50.708;7.906;2023-10-19T01:51:34;94488.75;;;10.64;100.00
77207;BME280;66190;50.708;7.906;2023-10-19T01:54:07;94479.06;;;10.63;100.00
77207;BME280;66190;50.708;7.906;2023-10-19T01:56:32;94476.91;;;10.65;100.00
77207;BME280;66190;50.708;7.906;2023-10-19T01:59:04;94471.59;;;10.70;100.00
77207;BME280;66190;50.708;7.906;2023-10-19T02:01:29;94486.09;;;10.69;100.00
77207;BME280;66190;50.708;7.906;2023-10-19T02:03:58;94474.56;;;10.74;100.00
77207;BME280;66190;50.708;7.906;2023-10-19T02:06:26;94477.03;;;10.75;100.00
77207;BME280;66190;50.708;7.906;2023-10-19T02:09:00;94480.28;;;10.77;100.00
77207;BME280;66190;50.708;7.906;2023-10-19T02:11:27;94484.41;;;10.85;100.00
77207;BME280;66190;50.708;7.906;2023-10-19T02:13:55;94483.66;;;10.89;100.00
77207;BME280;66190;50.708;7.906;2023-10-19T02:16:21;94487.50;;;10.98;100.00
77207;BME280;66190;50.708;7.906;2023-10-19T02:18:49;94487.81;;;11.02;100.00
77207;BME280;66190;50.708;7.906;2023-10-19T02:21:16;94476.63;;;11.10;100.00
77207;BME280;66190;50.708;7.906;2023-10-19T02:23:47;94480.44;;;11.19;100.00
77207;BME280;66190;50.708;7.906;2023-10-19T02:26:16;94472.94;;;11.21;100.00
77207;BME280;66190;50.708;7.906;2023-10-19T02:28:41;94467.28;;;11.22;100.00
77207;BME280;66190;50.708;7.906;2023-10-19T02:31:09;94470.28;;;11.26;100.00
77207;BME280;66190;50.708;7.906;2023-10-19T02:33:43;94470.06;;;11.27;100.00
77207;BME280;66190;50.708;7.906;2023-10-19T02:36:13;94467.13;;;11.29;100.00
77207;BME280;66190;50.708;7.906;2023-10-19T02:38:41;94473.06;;;11.31;100.00
77207;BME280;66190;50.708;7.906;2023-10-19T02:41:09;94464.97;;;11.31;100.00
77207;BME280;66190;50.708;7.906;2023-10-19T02:43:36;94471.41;;;11.30;100.00
77207;BME280;66190;50.708;7.906;2023-10-19T02:46:01;94462.28;;;11.31;100.00
77207;BME280;66190;50.708;7.906;2023-10-19T02:48:28;94462.28;;;11.31;100.00
77207;BME280;66190;50.708;7.906;2023-10-19T02:50:54;94470.66;;;11.34;100.00
77207;BME280;66190;50.708;7.906;2023-10-19T02:53:19;94468.81;;;11.40;100.00
77207;BME280;66190;50.708;7.906;2023-10-19T02:55:44;94462.63;;;11.39;100.00
77207;BME280;66190;50.708;7.906;2023-10-19T02:58:10;94470.19;;;11.42;100.00
77207;BME280;66190;50.708;7.906;2023-10-19T03:00:39;94464.81;;;11.42;100.00
77207;BME280;66190;50.708;7.906;2023-10-19T03:03:05;94454.59;;;11.44;100.00
77207;BME280;66190;50.708;7.906;2023-10-19T03:05:32;94456.22;;;11.45;100.00
77207;BME280;66190;50.708;7.906;2023-10-19T03:08:01;94459.47;;;11.48;100.00
77207;BME280;66190;50.708;7.906;2023-10-19T03:10:31;94449.78;;;11.47;100.00
77207;BME280;66190;50.708;7.906;2023-10-19T03:13:10;94458.16;;;11.50;100.00
77207;BME280;66190;50.708;7.906;2023-10-19T03:15:38;94442.53;;;11.52;100.00
77207;BME280;66190;50.708;7.906;2023-10-19T03:18:08;94442.81;;;11.56;100.00
77207;BME280;66190;50.708;7.906;2023-10-19T03:20:33;94444.19;;;11.58;100.00
77207;BME280;66190;50.708;7.906;2023-10-19T03:22:59;94444.19;;;11.58;100.00
77207;BME280;66190;50.708;7.906;2023-10-19T03:25:27;94446.63;;;11.60;100.00
77207;BME280;66190;50.708;7.906;2023-10-19T03:28:28;94440.44;;;11.59;100.00
77207;BME280;66190;50.708;7.906;2023-10-19T03:30:54;94437.47;;;11.61;100.00
77207;BME280;66190;50.708;7.906;2023-10-19T03:33:20;94438.84;;;11.63;100.00
77207;BME280;66190;50.708;7.906;2023-10-19T03:35:51;94436.97;;;11.64;100.00
77207;BME280;66190;50.708;7.906;2023-10-19T03:38:17;94429.50;;;11.66;100.00
77207;BME280;66190;50.708;7.906;2023-10-19T03:40:44;94422.47;;;11.65;100.00
77207;BME280;66190;50.708;7.906;2023-10-19T03:43:17;94424.41;;;11.69;100.00
77207;BME280;66190;50.708;7.906;2023-10-19T03:45:47;94424.63;;;11.68;100.00
77207;BME280;66190;50.708;7.906;2023-10-19T03:48:19;94413.06;;;11.67;100.00
77207;BME280;66190;50.708;7.906;2023-10-19T03:50:59;94416.84;;;11.71;100.00
77207;BME280;66190;50.708;7.906;2023-10-19T03:53:27;94408.22;;;11.69;100.00
77207;BME280;66190;50.708;7.906;2023-10-19T03:55:53;94415.75;;;11.67;100.00
77207;BME280;66190;50.708;7.906;2023-10-19T03:58:20;94423.00;;;11.67;100.00
77207;BME280;66190;50.708;7.906;2023-10-19T04:00:47;94422.75;;;11.68;100.00
77207;BME280;66190;50.708;7.906;2023-10-19T04:03:14;94416.81;;;11.66;100.00
77207;BME280;66190;50.708;7.906;2023-10-19T04:05:40;94406.28;;;11.65;100.00
77207;BME280;66190;50.708;7.906;2023-10-19T04:08:06;94407.69;;;11.67;100.00
77207;BME280;66190;50.708;7.906;2023-10-19T04:10:46;94417.94;;;11.70;100.00
77207;BME280;66190;50.708;7.906;2023-10-19T04:13:31;94410.41;;;11.72;100.00
77207;BME280;66190;50.708;7.906;2023-10-19T04:15:57;94409.31;;;11.73;100.00
77207;BME280;66190;50.708;7.906;2023-10-19T04:18:22;94405.03;;;11.77;100.00
77207;BME280;66190;50.708;7.906;2023-10-19T04:20:50;94400.47;;;11.78;100.00
77207;BME280;66190;50.708;7.906;2023-10-19T04:23:16;94393.44;;;11.77;100.00
77207;BME280;66190;50.708;7.906;2023-10-19T04:25:41;94395.59;;;11.75;100.00
77207;BME280;66190;50.708;7.906;2023-10-19T04:28:07;94391.56;;;11.77;100.00
77207;BME280;66190;50.708;7.906;2023-10-19T04:30:32;94380.00;;;11.82;100.00
77207;BME280;66190;50.708;7.906;2023-10-19T04:32:58;94389.16;;;11.81;100.00
77207;BME280;66190;50.708;7.906;2023-10-19T04:35:26;94382.19;;;11.85;100.00
77207;BME280;66190;50.708;7.906;2023-10-19T04:37:55;94385.41;;;11.87;100.00
77207;BME280;66190;50.708;7.906;2023-10-19T04:40:22;94387.31;;;11.86;100.00
77207;BME280;66190;50.708;7.906;2023-10-19T04:42:50;94381.38;;;11.84;100.00
77207;BME280;66190;50.708;7.906;2023-10-19T04:45:15;94385.41;;;11.87;100.00
77207;BME280;66190;50.708;7.906;2023-10-19T04:47:41;94374.63;;;11.82;100.00
77207;BME280;66190;50.708;7.906;2023-10-19T04:50:07;94374.91;;;11.85;100.00
77207;BME280;66190;50.708;7.906;2023-10-19T04:52:33;94374.13;;;11.85;100.00
77207;BME280;66190;50.708;7.906;2023-10-19T04:54:59;94373.31;;;11.89;100.00
77207;BME280;66190;50.708;7.906;2023-10-19T04:57:24;94372.25;;;11.90;100.00
77207;BME280;66190;50.708;7.906;2023-10-19T04:59:51;94375.19;;;11.89;100.00
77207;BME280;66190;50.708;7.906;2023-10-19T05:02:16;94374.41;;;11.88;100.00
77207;BME280;66190;50.708;7.906;2023-10-19T05:04:42;94370.38;;;11.91;100.00
77207;BME280;66190;50.708;7.906;2023-10-19T05:07:09;94376.84;;;11.90;100.00
77207;BME280;66190;50.708;7.906;2023-10-19T05:09:38;94377.34;;;11.87;100.00
77207;BME280;66190;50.708;7.906;2023-10-19T05:12:06;94375.19;;;11.89;100.00
77207;BME280;66190;50.708;7.906;2023-10-19T05:14:35;94371.44;;;11.90;100.00
77207;BME280;66190;50.708;7.906;2023-10-19T05:17:05;94372.22;;;11.85;100.00
77207;BME280;66190;50.708;7.906;2023-10-19T05:19:34;94369.50;;;11.80;100.00
77207;BME280;66190;50.708;7.906;2023-10-19T05:22:00;94379.41;;;11.75;100.00
77207;BME280;66190;50.708;7.906;2023-10-19T05:24:26;94381.31;;;11.74;100.00
77207;BME280;66190;50.708;7.906;2023-10-19T05:26:53;94371.09;;;11.76;100.00
77207;BME280;66190;50.708;7.906;2023-10-19T05:29:19;94367.06;;;11.79;100.00
77207;BME280;66190;50.708;7.906;2023-10-19T05:31:44;94372.75;;;11.82;100.00
77207;BME280;66190;50.708;7.906;2023-10-19T05:34:10;94368.66;;;11.75;100.00
77207;BME280;66190;50.708;7.906;2023-10-19T05:36:35;94373.81;;;11.81;100.00
77207;BME280;66190;50.708;7.906;2023-10-19T05:39:01;94366.28;;;11.83;100.00
77207;BME280;66190;50.708;7.906;2023-10-19T05:41:26;94373.59;;;11.88;100.00
77207;BME280;66190;50.708;7.906;2023-10-19T05:43:52;94374.34;;;11.83;100.00
77207;BME280;66190;50.708;7.906;2023-10-19T05:46:18;94376.00;;;11.89;100.00
77207;BME280;66190;50.708;7.906;2023-10-19T05:48:47;94373.31;;;11.89;100.00
77207;BME280;66190;50.708;7.906;2023-10-19T05:51:14;94372.00;;;11.92;100.00
77207;BME280;66190;50.708;7.906;2023-10-19T05:53:40;94376.31;;;11.93;100.00
77207;BME280;66190;50.708;7.906;2023-10-19T05:56:06;94380.13;;;11.97;100.00
77207;BME280;66190;50.708;7.906;2023-10-19T05:58:32;94378.47;;;11.96;100.00
77207;BME280;66190;50.708;7.906;2023-10-19T06:01:00;94384.94;;;11.95;100.00
77207;BME280;66190;50.708;7.906;2023-10-19T06:03:26;94378.75;;;11.94;100.00
77207;BME280;66190;50.708;7.906;2023-10-19T06:05:51;94388.69;;;11.94;100.00
77207;BME280;66190;50.708;7.906;2023-10-19T06:08:21;94382.00;;;11.96;100.00
77207;BME280;66190;50.708;7.906;2023-10-19T06:10:53;94388.75;;;11.99;100.00
77207;BME280;66190;50.708;7.906;2023-10-19T06:13:19;94386.06;;;11.99;100.00
77207;BME280;66190;50.708;7.906;2023-10-19T06:15:45;94383.09;;;12.00;100.00
77207;BME280;66190;50.708;7.906;2023-10-19T06:18:11;94390.06;;;11.96;100.00
77207;BME280;66190;50.708;7.906;2023-10-19T06:20:43;94391.16;;;11.95;100.00
77207;BME280;66190;50.708;7.906;2023-10-19T06:23:09;94386.53;;;11.91;100.00
77207;BME280;66190;50.708;7.906;2023-10-19T06:25:35;94391.38;;;11.89;100.00
77207;BME280;66190;50.708;7.906;2023-10-19T06:28:01;94385.69;;;11.85;100.00
77207;BME280;66190;50.708;7.906;2023-10-19T06:30:27;94391.91;;;11.86;100.00
77207;BME280;66190;50.708;7.906;2023-10-19T06:32:54;94391.09;;;11.90;100.00
77207;BME280;66190;50.708;7.906;2023-10-19T06:35:21;94398.13;;;11.91;100.00
77207;BME280;66190;50.708;7.906;2023-10-19T06:37:47;94399.47;;;11.94;100.00
77207;BME280;66190;50.708;7.906;2023-10-19T06:40:14;94397.59;;;11.94;100.00
77207;BME280;66190;50.708;7.906;2023-10-19T06:42:43;94400.84;;;11.96;100.00
77207;BME280;66190;50.708;7.906;2023-10-19T06:45:11;94396.84;;;11.99;100.00
77207;BME280;66190;50.708;7.906;2023-10-19T06:47:46;94400.31;;;11.99;100.00
77207;BME280;66190;50.708;7.906;2023-10-19T06:50:13;94399.53;;;11.99;100.00
77207;BME280;66190;50.708;7.906;2023-10-19T06:52:41;94406.56;;;12.05;100.00
77207;BME280;66190;50.708;7.906;2023-10-19T06:55:08;94408.97;;;12.06;100.00
77207;BME280;66190;50.708;7.906;2023-10-19T06:57:42;94399.56;;;12.09;100.00
77207;BME280;66190;50.708;7.906;2023-10-19T07:00:12;94403.63;;;12.11;100.00
77207;BME280;66190;50.708;7.906;2023-10-19T07:02:45;94408.75;;;12.13;100.00
77207;BME280;66190;50.708;7.906;2023-10-19T07:05:12;94412.00;;;12.15;100.00
77207;BME280;66190;50.708;7.906;2023-10-19T07:07:42;94409.03;;;12.16;100.00
77207;BME280;66190;50.708;7.906;2023-10-19T07:10:09;94411.78;;;12.21;100.00
77207;BME280;66190;50.708;7.906;2023-10-19T07:12:39;94410.13;;;12.20;100.00
77207;BME280;66190;50.708;7.906;2023-10-19T07:15:07;94410.13;;;12.20;100.00
77207;BME280;66190;50.708;7.906;2023-10-19T07:17:35;94408.56;;;12.24;100.00
77207;BME280;66190;50.708;7.906;2023-10-19T07:20:04;94401.53;;;12.23;100.00
77207;BME280;66190;50.708;7.906;2023-10-19T07:22:34;94408.03;;;12.27;100.00
77207;BME280;66190;50.708;7.906;2023-10-19T07:25:06;94413.16;;;12.29;100.00
77207;BME280;66190;50.708;7.906;2023-10-19T07:27:34;94409.69;;;12.33;100.00
77207;BME280;66190;50.708;7.906;2023-10-19T07:30:03;94411.03;;;12.36;100.00
77207;BME280;66190;50.708;7.906;2023-10-19T07:32:34;94412.91;;;12.35;100.00
77207;BME280;66190;50.708;7.906;2023-10-19T07:34:59;94422.91;;;12.40;100.00
77207;BME280;66190;50.708;7.906;2023-10-19T07:37:25;94411.59;;;12.43;100.00
77207;BME280;66190;50.708;7.906;2023-10-19T07:39:50;94416.19;;;12.47;100.00
77207;BME280;66190;50.708;7.906;2023-10-19T07:42:17;94418.09;;;12.47;100.00
77207;BME280;66190;50.708;7.906;2023-10-19T07:44:43;94418.09;;;12.52;100.00
77207;BME280;66190;50.708;7.906;2023-10-19T07:47:11;94424.06;;;12.54;100.00
77207;BME280;66190;50.708;7.906;2023-10-19T07:49:37;94422.16;;;12.54;100.00
77207;BME280;66190;50.708;7.906;2023-10-19T07:52:07;94414.09;;;12.60;100.00
77207;BME280;66190;50.708;7.906;2023-10-19T07:54:33;94409.00;;;12.63;100.00
77207;BME280;66190;50.708;7.906;2023-10-19T07:56:59;94419.78;;;12.63;100.00
77207;BME280;66190;50.708;7.906;2023-10-19T07:59:29;94411.44;;;12.70;100.00
77207;BME280;66190;50.708;7.906;2023-10-19T08:01:54;94415.75;;;12.76;100.00
77207;BME280;66190;50.708;7.906;2023-10-19T08:04:19;94418.44;;;12.76;100.00
77207;BME280;66190;50.708;7.906;2023-10-19T08:06:45;94424.94;;;12.80;100.00
77207;BME280;66190;50.708;7.906;2023-10-19T08:09:12;94419.53;;;12.80;100.00
77207;BME280;66190;50.708;7.906;2023-10-19T08:11:37;94417.69;;;12.85;100.00
77207;BME280;66190;50.708;7.906;2023-10-19T08:14:03;94413.91;;;12.91;100.00
77207;BME280;66190;50.708;7.906;2023-10-19T08:16:28;94411.50;;;13.00;100.00
77207;BME280;66190;50.708;7.906;2023-10-19T08:18:53;94412.06;;;13.02;100.00
77207;BME280;66190;50.708;7.906;2023-10-19T08:21:19;94399.66;;;13.11;100.00
77207;BME280;66190;50.708;7.906;2023-10-19T08:23:44;94404.00;;;13.17;100.00
77207;BME280;66190;50.708;7.906;2023-10-19T08:26:10;94401.84;;;13.24;100.00
77207;BME280;66190;50.708;7.906;2023-10-19T08:28:36;94400.75;;;13.30;100.00
77207;BME280;66190;50.708;7.906;2023-10-19T08:31:02;94399.44;;;13.32;100.00
77207;BME280;66190;50.708;7.906;2023-10-19T08:33:28;94393.47;;;13.40;100.00
77207;BME280;66190;50.708;7.906;2023-10-19T08:35:55;94400.53;;;13.46;100.00
77207;BME280;66190;50.708;7.906;2023-10-19T08:38:22;94403.75;;;13.58;100.00
77207;BME280;66190;50.708;7.906;2023-10-19T08:40:49;94409.16;;;13.63;100.00
77207;BME280;66190;50.708;7.906;2023-10-19T08:43:16;94399.16;;;13.69;100.00
77207;BME280;66190;50.708;7.906;2023-10-19T08:45:44;94407.25;;;13.74;100.00
77207;BME280;66190;50.708;7.906;2023-10-19T08:48:09;94396.72;;;13.78;100.00
77207;BME280;66190;50.708;7.906;2023-10-19T08:50:36;94400.75;;;13.85;100.00
77207;BME280;66190;50.708;7.906;2023-10-19T08:53:06;94396.13;;;13.96;100.00
77207;BME280;66190;50.708;7.906;2023-10-19T08:55:34;94404.50;;;13.99;100.00
77207;BME280;66190;50.708;7.906;2023-10-19T08:58:02;94399.09;;;13.99;100.00
77207;BME280;66190;50.708;7.906;2023-10-19T09:00:43;94396.09;;;14.06;100.00
77207;BME280;66190;50.708;7.906;2023-10-19T09:03:12;94383.13;;;14.08;100.00
77207;BME280;66190;50.708;7.906;2023-10-19T09:05:39;94384.78;;;14.04;100.00
77207;BME280;66190;50.708;7.906;2023-10-19T09:08:05;94386.94;;;14.02;100.00
77207;BME280;66190;50.708;7.906;2023-10-19T09:10:32;94373.94;;;14.09;100.00
77207;BME280;66190;50.708;7.906;2023-10-19T09:13:07;94375.00;;;14.23;100.00
77207;BME280;66190;50.708;7.906;2023-10-19T09:15:38;94373.88;;;14.24;100.00
77207;BME280;66190;50.708;7.906;2023-10-19T09:18:21;94381.13;;;14.48;100.00
77207;BME280;66190;50.708;7.906;2023-10-19T09:20:49;94380.56;;;14.56;100.00
77207;BME280;66190;50.708;7.906;2023-10-19T09:23:21;94377.72;;;14.82;100.00
77207;BME280;66190;50.708;7.906;2023-10-19T09:25:48;94372.88;;;14.73;97.50
77207;BME280;66190;50.708;7.906;2023-10-19T09:28:14;94368.91;;;15.05;98.98
77207;BME280;66190;50.708;7.906;2023-10-19T09:30:40;94374.22;;;14.81;96.98
77207;BME280;66190;50.708;7.906;2023-10-19T09:33:07;94363.31;;;14.91;97.92
77207;BME280;66190;50.708;7.906;2023-10-19T09:35:34;94364.56;;;15.09;96.94
77207;BME280;66190;50.708;7.906;2023-10-19T09:38:02;94361.56;;;15.10;97.00
77207;BME280;66190;50.708;7.906;2023-10-19T09:40:30;94352.78;;;15.28;96.76
77207;BME280;66190;50.708;7.906;2023-10-19T09:42:56;94335.34;;;15.39;94.96
77207;BME280;66190;50.708;7.906;2023-10-19T09:45:25;94344.22;;;15.50;93.40
77207;BME280;66190;50.708;7.906;2023-10-19T09:47:54;94341.50;;;15.55;92.52
77207;BME280;66190;50.708;7.906;2023-10-19T09:50:20;94336.72;;;15.70;94.05
77207;BME280;66190;50.708;7.906;2023-10-19T09:52:45;94326.78;;;15.89;92.83
77207;BME280;66190;50.708;7.906;2023-10-19T09:55:32;94330.50;;;15.93;91.00
77207;BME280;66190;50.708;7.906;2023-10-19T09:58:02;94334.34;;;15.93;89.97
77207;BME280;66190;50.708;7.906;2023-10-19T10:00:32;94343.09;;;15.56;90.69
77207;BME280;66190;50.708;7.906;2023-10-19T10:03:00;94339.94;;;15.44;91.33
77207;BME280;66190;50.708;7.906;2023-10-19T10:10:43;94350.88;;;15.62;91.03
77207;BME280;66190;50.708;7.906;2023-10-19T10:15:52;94352.81;;;15.57;92.18
77207;BME280;66190;50.708;7.906;2023-10-19T10:18:18;94355.59;;;15.52;91.55
77207;BME280;66190;50.708;7.906;2023-10-19T10:20:44;94356.22;;;15.72;91.40
77207;BME280;66190;50.708;7.906;2023-10-19T10:23:21;94343.47;;;15.73;90.20
77207;BME280;66190;50.708;7.906;2023-10-19T10:25:52;94344.47;;;15.82;90.46
77207;BME280;66190;50.708;7.906;2023-10-19T10:28:19;94353.78;;;15.71;90.72
77207;BME280;66190;50.708;7.906;2023-10-19T10:31:20;94348.72;;;15.64;90.54
77207;BME280;66190;50.708;7.906;2023-10-19T10:33:49;94343.56;;;15.91;90.79
77207;BME280;66190;50.708;7.906;2023-10-19T10:36:16;94341.50;;;16.07;89.15
77207;BME280;66190;50.708;7.906;2023-10-19T10:38:49;94352.47;;;16.21;89.10
77207;BME280;66190;50.708;7.906;2023-10-19T10:41:25;94334.50;;;16.25;88.78
77207;BME280;66190;50.708;7.906;2023-10-19T10:43:58;94337.28;;;16.43;87.49
77207;BME280;66190;50.708;7.906;2023-10-19T10:46:27;94346.34;;;16.34;86.43
77207;BME280;66190;50.708;7.906;2023-10-19T10:48:54;94345.13;;;16.21;87.39
77207;BME280;66190;50.708;7.906;2023-10-19T10:51:21;94341.06;;;16.00;89.19
77207;BME280;66190;50.708;7.906;2023-10-19T10:53:51;94339.41;;;15.75;90.79
77207;BME280;66190;50.708;7.906;2023-10-19T10:56:19;94333.81;;;15.90;89.28
77207;BME280;66190;50.708;7.906;2023-10-19T10:58:45;94340.66;;;15.83;90.22
77207;BME280;66190;50.708;7.906;2023-10-19T11:01:11;94330.50;;;15.93;89.78
77207;BME280;66190;50.708;7.906;2023-10-19T11:03:37;94328.63;;;15.94;89.77
77207;BME280;66190;50.708;7.906;2023-10-19T11:06:06;94328.50;;;15.80;89.95
77207;BME280;66190;50.708;7.906;2023-10-19T11:08:36;94333.50;;;15.68;91.21
77207;BME280;66190;50.708;7.906;2023-10-19T11:11:11;94334.91;;;15.61;91.75
77207;BME280;66190;50.708;7.906;2023-10-19T11:13:37;94330.91;;;15.53;90.60
77207;BME280;66190;50.708;7.906;2023-10-19T11:16:05;94329.06;;;15.49;89.69
77207;BME280;66190;50.708;7.906;2023-10-19T11:18:49;94330.22;;;15.43;91.61
77207;BME280;66190;50.708;7.906;2023-10-19T11:21:15;94338.78;;;15.50;92.41
77207;BME280;66190;50.708;7.906;2023-10-19T11:23:44;94336.13;;;15.45;91.89
77207;BME280;66190;50.708;7.906;2023-10-19T11:26:11;94340.84;;;15.29;92.94
77207;BME280;66190;50.708;7.906;2023-10-19T11:28:37;94337.94;;;15.21;92.69
77207;BME280;66190;50.708;7.906;2023-10-19T11:31:12;94346.91;;;15.16;93.43
77207;BME280;66190;50.708;7.906;2023-10-19T11:33:40;94344.78;;;15.08;93.33
77207;BME280;66190;50.708;7.906;2023-10-19T11:36:07;94345.34;;;15.05;94.17
77207;BME280;66190;50.708;7.906;2023-10-19T11:38:32;94351.88;;;15.04;94.11
77207;BME280;66190;50.708;7.906;2023-10-19T11:40:57;94350.06;;;14.90;94.25
77207;BME280;66190;50.708;7.906;2023-10-19T11:43:23;94340.59;;;14.92;94.50
77207;BME280;66190;50.708;7.906;2023-10-19T11:45:48;94331.59;;;14.97;94.31
77207;BME280;66190;50.708;7.906;2023-10-19T11:48:14;94324.22;;;15.07;94.25
77207;BME280;66190;50.708;7.906;2023-10-19T11:50:41;94316.81;;;15.18;93.70
77207;BME280;66190;50.708;7.906;2023-10-19T11:53:06;94317.94;;;15.12;92.67
77207;BME280;66190;50.708;7.906;2023-10-19T11:55:35;94316.22;;;15.26;92.99
77207;BME280;66190;50.708;7.906;2023-10-19T11:58:00;94313.44;;;15.41;92.12
77207;BME280;66190;50.708;7.906;2023-10-19T12:00:26;94308.00;;;15.69;91.97
77207;BME280;66190;50.708;7.906;2023-10-19T12:02:59;94308.22;;;16.02;89.98
77207;BME280;66190;50.708;7.906;2023-10-19T12:05:24;94296.53;;;16.25;89.67
77207;BME280;66190;50.708;7.906;2023-10-19T12:07:50;94300.91;;;16.68;88.24
77207;BME280;66190;50.708;7.906;2023-10-19T12:10:17;94293.03;;;17.03;85.74
77207;BME280;66190;50.708;7.906;2023-10-19T12:12:45;94294.50;;;17.15;85.02
77207;BME280;66190;50.708;7.906;2023-10-19T12:15:10;94291.88;;;17.10;83.79
77207;BME280;66190;50.708;7.906;2023-10-19T12:17:38;94282.41;;;16.88;83.28
77207;BME280;66190;50.708;7.906;2023-10-19T12:20:03;94292.41;;;16.51;85.89
77207;BME280;66190;50.708;7.906;2023-10-19T12:22:31;94296.03;;;16.46;86.71
77207;BME280;66190;50.708;7.906;2023-10-19T12:25:01;94303.41;;;16.17;87.99
77207;BME280;66190;50.708;7.906;2023-10-19T12:27:27;94295.09;;;16.09;88.87
77207;BME280;66190;50.708;7.906;2023-10-19T12:29:53;94304.16;;;15.99;89.96
77207;BME280;66190;50.708;7.906;2023-10-19T12:32:19;94292.44;;;15.80;90.54
77207;BME280;66190;50.708;7.906;2023-10-19T12:34:45;94292.66;;;15.83;90.92
77207;BME280;66190;50.708;7.906;2023-10-19T12:37:10;94292.00;;;15.68;92.05
77207;BME280;66190;50.708;7.906;2023-10-19T12:39:38;94292.34;;;15.61;92.33
77207;BME280;66190;50.708;7.906;2023-10-19T12:42:10;94279.16;;;15.55;92.56
77207;BME280;66190;50.708;7.906;2023-10-19T12:44:35;94271.50;;;15.57;92.10
77207;BME280;66190;50.708;7.906;2023-10-19T12:47:10;94278.00;;;15.61;91.90
77207;BME280;66190;50.708;7.906;2023-10-19T12:49:40;94280.84;;;15.46;92.50
77207;BME280;66190;50.708;7.906;2023-10-19T12:52:06;94293.84;;;15.49;92.66
77207;BME280;66190;50.708;7.906;2023-10-19T12:54:35;94287.88;;;15.47;92.48
77207;BME280;66190;50.708;7.906;2023-10-19T12:57:02;94268.63;;;15.48;92.86
77207;BME280;66190;50.708;7.906;2023-10-19T12:59:29;94274.97;;;15.34;93.70
77207;BME280;66190;50.708;7.906;2023-10-19T13:01:55;94280.69;;;15.32;93.72
77207;BME280;66190;50.708;7.906;2023-10-19T13:04:23;94282.56;;;15.32;94.01
77207;BME280;66190;50.708;7.906;2023-10-19T13:06:50;94276.16;;;15.23;94.08